sensor_id;sensor_type;location;lat;lon;timestamp;temperature;humidity
75994;DHT22;64680;53.800;9.988;2024-01-15T00:02:05;0.60;99.90
75994;DHT22;64680;53.800;9.988;2024-01-15T00:04:36;0.60;99.90
75994;DHT22;64680;53.800;9.988;2024-01-15T00:07:01;0.60;99.90
75994;DHT22;64680;53.800;9.988;2024-01-15T00:09:27;0.60;99.90
75994;DHT22;64680;53.800;9.988;2024-01-15T00:11:53;0.60;99.90
75994;DHT22;64680;53.800;9.988;2024-01-15T00:14:18;0.60;99.90
75994;DHT22;64680;53.800;9.988;2024-01-15T00:16:45;0.60;99.90
75994;DHT22;64680;53.800;9.988;2024-01-15T00:19:11;0.60;99.90
75994;DHT22;64680;53.800;9.988;2024-01-15T00:21:37;0.70;99.90
75994;DHT22;64680;53.800;9.988;2024-01-15T00:24:02;0.70;99.90
75994;DHT22;64680;53.800;9.988;2024-01-15T00:26:28;0.70;99.90
75994;DHT22;64680;53.800;9.988;2024-01-15T00:28:53;0.70;99.90
75994;DHT22;64680;53.800;9.988;2024-01-15T00:31:19;0.70;99.90
75994;DHT22;64680;53.800;9.988;2024-01-15T00:33:45;0.70;99.90
75994;DHT22;64680;53.800;9.988;2024-01-15T00:36:11;0.70;99.90
75994;DHT22;64680;53.800;9.988;2024-01-15T00:38:36;0.70;99.90
75994;DHT22;64680;53.800;9.988;2024-01-15T00:41:02;0.70;99.90
75994;DHT22;64680;53.800;9.988;2024-01-15T00:43:28;0.70;99.90
75994;DHT22;64680;53.800;9.988;2024-01-15T00:45:55;0.70;99.90
75994;DHT22;64680;53.800;9.988;2024-01-15T00:48:20;0.70;99.90
75994;DHT22;64680;53.800;9.988;2024-01-15T00:50:46;0.70;99.90
75994;DHT22;64680;53.800;9.988;2024-01-15T00:53:11;0.70;99.90
75994;DHT22;64680;53.800;9.988;2024-01-15T00:55:37;0.70;99.90
75994;DHT22;64680;53.800;9.988;2024-01-15T00:58:03;0.80;99.90
75994;DHT22;64680;53.800;9.988;2024-01-15T01:00:29;0.70;99.90
75994;DHT22;64680;53.800;9.988;2024-01-15T01:02:54;0.70;99.90
75994;DHT22;64680;53.800;9.988;2024-01-15T01:05:20;0.70;99.90
75994;DHT22;64680;53.800;9.988;2024-01-15T01:07:46;0.60;99.90
75994;DHT22;64680;53.800;9.988;2024-01-15T01:10:11;0.60;99.90
75994;DHT22;64680;53.800;9.988;2024-01-15T01:12:37;0.60;99.90
75994;DHT22;64680;53.800;9.988;2024-01-15T01:15:03;0.60;99.90
75994;DHT22;64680;53.800;9.988;2024-01-15T01:17:28;0.60;99.90
75994;DHT22;64680;53.800;9.988;2024-01-15T01:19:56;0.50;99.90
75994;DHT22;64680;53.800;9.988;2024-01-15T01:22:22;0.50;99.90
75994;DHT22;64680;53.800;9.988;2024-01-15T01:24:47;0.50;99.90
75994;DHT22;64680;53.800;9.988;2024-01-15T01:27:13;0.50;99.90
75994;DHT22;64680;53.800;9.988;2024-01-15T01:29:38;0.50;99.90
75994;DHT22;64680;53.800;9.988;2024-01-15T01:32:04;0.60;99.90
75994;DHT22;64680;53.800;9.988;2024-01-15T01:34:32;0.60;99.90
75994;DHT22;64680;53.800;9.988;2024-01-15T01:36:58;0.60;99.90
75994;DHT22;64680;53.800;9.988;2024-01-15T01:39:23;0.60;99.90
75994;DHT22;64680;53.800;9.988;2024-01-15T01:41:49;0.60;99.90
75994;DHT22;64680;53.800;9.988;2024-01-15T01:44:15;0.60;99.90
75994;DHT22;64680;53.800;9.988;2024-01-15T01:46:41;0.70;99.90
75994;DHT22;64680;53.800;9.988;2024-01-15T01:49:07;0.70;99.90
75994;DHT22;64680;53.800;9.988;2024-01-15T01:51:35;0.70;99.90
75994;DHT22;64680;53.800;9.988;2024-01-15T01:54:03;0.70;99.90
75994;DHT22;64680;53.800;9.988;2024-01-15T01:56:30;0.70;99.90
75994;DHT22;64680;53.800;9.988;2024-01-15T01:58:56;0.70;99.90
75994;DHT22;64680;53.800;9.988;2024-01-15T02:01:22;0.80;99.90
75994;DHT22;64680;53.800;9.988;2024-01-15T02:03:47;0.80;99.90
75994;DHT22;64680;53.800;9.988;2024-01-15T02:06:13;0.90;99.90
75994;DHT22;64680;53.800;9.988;2024-01-15T02:08:39;0.90;99.90
75994;DHT22;64680;53.800;9.988;2024-01-15T02:11:05;0.90;99.90
75994;DHT22;64680;53.800;9.988;2024-01-15T02:13:30;0.90;99.90
75994;DHT22;64680;53.800;9.988;2024-01-15T02:15:56;1.00;99.90
75994;DHT22;64680;53.800;9.988;2024-01-15T02:18:21;1.00;99.90
75994;DHT22;64680;53.800;9.988;2024-01-15T02:20:47;1.00;99.90
75994;DHT22;64680;53.800;9.988;2024-01-15T02:23:14;1.00;99.90
75994;DHT22;64680;53.800;9.988;2024-01-15T02:25:45;1.00;99.90
75994;DHT22;64680;53.800;9.988;2024-01-15T02:28:12;1.00;99.90
75994;DHT22;64680;53.800;9.988;2024-01-15T02:30:39;1.10;99.90
75994;DHT22;64680;53.800;9.988;2024-01-15T02:33:06;1.00;99.90
75994;DHT22;64680;53.800;9.988;2024-01-15T02:35:32;1.00;99.90
75994;DHT22;64680;53.800;9.988;2024-01-15T02:37:58;0.90;99.90
75994;DHT22;64680;53.800;9.988;2024-01-15T02:40:23;1.00;99.90
75994;DHT22;64680;53.800;9.988;2024-01-15T02:42:51;1.00;99.30
75994;DHT22;64680;53.800;9.988;2024-01-15T02:45:17;1.00;93.00
75994;DHT22;64680;53.800;9.988;2024-01-15T02:47:43;1.10;86.00
75994;DHT22;64680;53.800;9.988;2024-01-15T02:50:08;1.10;82.50
75994;DHT22;64680;53.800;9.988;2024-01-15T02:52:34;0.90;87.10
75994;DHT22;64680;53.800;9.988;2024-01-15T02:55:00;0.80;90.00
75994;DHT22;64680;53.800;9.988;2024-01-15T02:57:25;0.70;92.60
75994;DHT22;64680;53.800;9.988;2024-01-15T02:59:51;0.70;95.40
75994;DHT22;64680;53.800;9.988;2024-01-15T03:02:17;0.60;99.00
75994;DHT22;64680;53.800;9.988;2024-01-15T03:04:45;0.60;99.90
75994;DHT22;64680;53.800;9.988;2024-01-15T03:07:11;0.50;99.90
75994;DHT22;64680;53.800;9.988;2024-01-15T03:09:37;0.50;99.90
75994;DHT22;64680;53.800;9.988;2024-01-15T03:12:03;0.50;99.90
75994;DHT22;64680;53.800;9.988;2024-01-15T03:14:28;0.40;99.90
75994;DHT22;64680;53.800;9.988;2024-01-15T03:16:54;0.50;99.90
75994;DHT22;64680;53.800;9.988;2024-01-15T03:19:19;0.50;99.90
75994;DHT22;64680;53.800;9.988;2024-01-15T03:21:45;0.60;99.90
75994;DHT22;64680;53.800;9.988;2024-01-15T03:24:10;0.60;99.90
75994;DHT22;64680;53.800;9.988;2024-01-15T03:26:36;0.50;99.90
75994;DHT22;64680;53.800;9.988;2024-01-15T03:29:02;0.50;99.90
75994;DHT22;64680;53.800;9.988;2024-01-15T03:31:27;0.50;99.90
75994;DHT22;64680;53.800;9.988;2024-01-15T03:33:53;0.60;99.90
75994;DHT22;64680;53.800;9.988;2024-01-15T03:36:19;0.60;99.90
75994;DHT22;64680;53.800;9.988;2024-01-15T03:38:44;0.60;99.90
75994;DHT22;64680;53.800;9.988;2024-01-15T03:41:10;0.60;99.90
75994;DHT22;64680;53.800;9.988;2024-01-15T03:43:36;0.60;98.40
75994;DHT22;64680;53.800;9.988;2024-01-15T03:46:01;0.70;98.20
75994;DHT22;64680;53.800;9.988;2024-01-15T03:48:28;0.70;98.60
75994;DHT22;64680;53.800;9.988;2024-01-15T03:50:53;0.70;97.20
75994;DHT22;64680;53.800;9.988;2024-01-15T03:53:19;0.80;95.60
75994;DHT22;64680;53.800;9.988;2024-01-15T03:55:44;0.80;94.50
75994;DHT22;64680;53.800;9.988;2024-01-15T03:58:10;0.80;94.50
75994;DHT22;64680;53.800;9.988;2024-01-15T04:00:37;0.80;94.90
75994;DHT22;64680;53.800;9.988;2024-01-15T04:03:02;0.90;95.40
75994;DHT22;64680;53.800;9.988;2024-01-15T04:05:28;0.90;95.30
75994;DHT22;64680;53.800;9.988;2024-01-15T04:07:54;1.00;95.50
75994;DHT22;64680;53.800;9.988;2024-01-15T04:10:19;1.00;94.40
75994;DHT22;64680;53.800;9.988;2024-01-15T04:12:45;1.10;93.30
75994;DHT22;64680;53.800;9.988;2024-01-15T04:15:13;1.10;94.00
75994;DHT22;64680;53.800;9.988;2024-01-15T04:17:42;1.10;94.10
75994;DHT22;64680;53.800;9.988;2024-01-15T04:20:07;1.20;93.20
75994;DHT22;64680;53.800;9.988;2024-01-15T04:22:35;1.30;92.10
75994;DHT22;64680;53.800;9.988;2024-01-15T04:25:01;1.30;88.80
75994;DHT22;64680;53.800;9.988;2024-01-15T04:27:27;1.40;85.90
75994;DHT22;64680;53.800;9.988;2024-01-15T04:29:53;1.40;84.30
75994;DHT22;64680;53.800;9.988;2024-01-15T04:32:19;1.30;84.40
75994;DHT22;64680;53.800;9.988;2024-01-15T04:34:44;1.30;85.50
75994;DHT22;64680;53.800;9.988;2024-01-15T04:37:10;1.20;86.40
75994;DHT22;64680;53.800;9.988;2024-01-15T04:39:36;1.10;86.30
75994;DHT22;64680;53.800;9.988;2024-01-15T04:42:02;1.10;87.10
75994;DHT22;64680;53.800;9.988;2024-01-15T04:44:31;1.10;87.30
75994;DHT22;64680;53.800;9.988;2024-01-15T04:46:56;1.00;87.40
75994;DHT22;64680;53.800;9.988;2024-01-15T04:49:22;1.00;87.30
75994;DHT22;64680;53.800;9.988;2024-01-15T04:51:47;1.00;86.80
75994;DHT22;64680;53.800;9.988;2024-01-15T04:54:13;1.00;87.10
75994;DHT22;64680;53.800;9.988;2024-01-15T04:56:46;1.00;86.20
75994;DHT22;64680;53.800;9.988;2024-01-15T04:59:13;1.00;86.00
75994;DHT22;64680;53.800;9.988;2024-01-15T05:01:42;1.00;87.00
75994;DHT22;64680;53.800;9.988;2024-01-15T05:04:07;1.10;87.70
75994;DHT22;64680;53.800;9.988;2024-01-15T05:06:33;1.10;88.10
75994;DHT22;64680;53.800;9.988;2024-01-15T05:08:59;1.00;88.20
75994;DHT22;64680;53.800;9.988;2024-01-15T05:11:25;1.00;89.30
75994;DHT22;64680;53.800;9.988;2024-01-15T05:13:50;1.00;88.30
75994;DHT22;64680;53.800;9.988;2024-01-15T05:16:16;1.00;88.40
75994;DHT22;64680;53.800;9.988;2024-01-15T05:18:41;1.00;88.80
75994;DHT22;64680;53.800;9.988;2024-01-15T05:21:08;1.00;87.70
75994;DHT22;64680;53.800;9.988;2024-01-15T05:23:34;1.00;86.70
75994;DHT22;64680;53.800;9.988;2024-01-15T05:26:00;1.00;83.80
75994;DHT22;64680;53.800;9.988;2024-01-15T05:28:25;1.00;81.60
75994;DHT22;64680;53.800;9.988;2024-01-15T05:30:51;1.00;82.30
75994;DHT22;64680;53.800;9.988;2024-01-15T05:33:21;1.00;82.10
75994;DHT22;64680;53.800;9.988;2024-01-15T05:35:46;1.00;81.80
75994;DHT22;64680;53.800;9.988;2024-01-15T05:38:12;1.00;76.10
75994;DHT22;64680;53.800;9.988;2024-01-15T05:40:38;1.00;74.60
75994;DHT22;64680;53.800;9.988;2024-01-15T05:43:03;1.00;72.40
75994;DHT22;64680;53.800;9.988;2024-01-15T05:45:30;1.10;70.00
75994;DHT22;64680;53.800;9.988;2024-01-15T05:47:56;1.10;70.70
75994;DHT22;64680;53.800;9.988;2024-01-15T05:50:22;1.10;71.50
75994;DHT22;64680;53.800;9.988;2024-01-15T05:52:47;1.10;72.80
75994;DHT22;64680;53.800;9.988;2024-01-15T05:55:13;1.10;74.40
75994;DHT22;64680;53.800;9.988;2024-01-15T05:57:39;1.10;77.60
75994;DHT22;64680;53.800;9.988;2024-01-15T06:00:05;1.10;77.80
75994;DHT22;64680;53.800;9.988;2024-01-15T06:02:32;1.00;78.20
75994;DHT22;64680;53.800;9.988;2024-01-15T06:04:57;1.10;78.00
75994;DHT22;64680;53.800;9.988;2024-01-15T06:07:23;1.20;74.40
75994;DHT22;64680;53.800;9.988;2024-01-15T06:09:49;1.20;73.20
75994;DHT22;64680;53.800;9.988;2024-01-15T06:12:15;1.20;70.10
75994;DHT22;64680;53.800;9.988;2024-01-15T06:14:40;1.20;71.80
75994;DHT22;64680;53.800;9.988;2024-01-15T06:17:07;1.20;67.50
75994;DHT22;64680;53.800;9.988;2024-01-15T06:19:32;1.20;65.90
75994;DHT22;64680;53.800;9.988;2024-01-15T06:21:58;1.20;64.90
75994;DHT22;64680;53.800;9.988;2024-01-15T06:24:23;1.20;63.00
75994;DHT22;64680;53.800;9.988;2024-01-15T06:26:49;1.20;63.70
75994;DHT22;64680;53.800;9.988;2024-01-15T06:29:14;1.10;62.70
75994;DHT22;64680;53.800;9.988;2024-01-15T06:31:40;1.20;59.90
75994;DHT22;64680;53.800;9.988;2024-01-15T06:34:06;1.10;59.60
75994;DHT22;64680;53.800;9.988;2024-01-15T06:36:31;1.10;62.50
75994;DHT22;64680;53.800;9.988;2024-01-15T06:38:57;1.00;63.90
75994;DHT22;64680;53.800;9.988;2024-01-15T06:41:22;1.00;64.00
75994;DHT22;64680;53.800;9.988;2024-01-15T06:43:48;1.00;65.40
75994;DHT22;64680;53.800;9.988;2024-01-15T06:46:22;1.00;64.80
75994;DHT22;64680;53.800;9.988;2024-01-15T06:48:48;1.10;64.80
75994;DHT22;64680;53.800;9.988;2024-01-15T06:51:15;1.10;65.50
75994;DHT22;64680;53.800;9.988;2024-01-15T06:53:40;1.10;63.40
75994;DHT22;64680;53.800;9.988;2024-01-15T06:56:06;1.10;63.50
75994;DHT22;64680;53.800;9.988;2024-01-15T06:58:32;1.00;64.00
75994;DHT22;64680;53.800;9.988;2024-01-15T07:00:57;1.10;61.70
75994;DHT22;64680;53.800;9.988;2024-01-15T07:03:23;1.10;63.10
75994;DHT22;64680;53.800;9.988;2024-01-15T07:05:49;1.00;61.50
75994;DHT22;64680;53.800;9.988;2024-01-15T07:08:14;1.00;60.60
75994;DHT22;64680;53.800;9.988;2024-01-15T07:10:40;1.10;57.60
75994;DHT22;64680;53.800;9.988;2024-01-15T07:13:06;1.00;59.80
75994;DHT22;64680;53.800;9.988;2024-01-15T07:15:31;1.00;60.60
75994;DHT22;64680;53.800;9.988;2024-01-15T07:17:57;1.10;61.30
75994;DHT22;64680;53.800;9.988;2024-01-15T07:20:22;1.10;61.00
75994;DHT22;64680;53.800;9.988;2024-01-15T07:22:48;1.00;65.20
75994;DHT22;64680;53.800;9.988;2024-01-15T07:25:14;1.00;65.90
75994;DHT22;64680;53.800;9.988;2024-01-15T07:27:41;1.00;66.20
75994;DHT22;64680;53.800;9.988;2024-01-15T07:30:10;0.90;66.50
75994;DHT22;64680;53.800;9.988;2024-01-15T07:32:36;1.00;66.70
75994;DHT22;64680;53.800;9.988;2024-01-15T07:35:02;1.00;64.70
75994;DHT22;64680;53.800;9.988;2024-01-15T07:37:27;1.10;64.10
75994;DHT22;64680;53.800;9.988;2024-01-15T07:39:54;1.00;64.60
75994;DHT22;64680;53.800;9.988;2024-01-15T07:42:19;1.00;65.60
75994;DHT22;64680;53.800;9.988;2024-01-15T07:44:45;1.00;66.10
75994;DHT22;64680;53.800;9.988;2024-01-15T07:47:10;1.10;67.40
75994;DHT22;64680;53.800;9.988;2024-01-15T07:49:36;1.00;69.50
75994;DHT22;64680;53.800;9.988;2024-01-15T07:52:01;1.00;70.80
75994;DHT22;64680;53.800;9.988;2024-01-15T07:54:27;1.00;69.70
75994;DHT22;64680;53.800;9.988;2024-01-15T07:56:58;1.10;69.30
75994;DHT22;64680;53.800;9.988;2024-01-15T07:59:24;1.10;67.00
75994;DHT22;64680;53.800;9.988;2024-01-15T08:01:51;1.00;66.40
75994;DHT22;64680;53.800;9.988;2024-01-15T08:04:16;1.10;65.10
75994;DHT22;64680;53.800;9.988;2024-01-15T08:06:42;1.10;64.90
75994;DHT22;64680;53.800;9.988;2024-01-15T08:09:08;1.10;66.20
75994;DHT22;64680;53.800;9.988;2024-01-15T08:11:34;1.00;66.50
75994;DHT22;64680;53.800;9.988;2024-01-15T08:14:00;1.00;65.80
75994;DHT22;64680;53.800;9.988;2024-01-15T08:16:25;1.10;65.90
75994;DHT22;64680;53.800;9.988;2024-01-15T08:18:53;1.10;66.00
75994;DHT22;64680;53.800;9.988;2024-01-15T08:21:19;1.10;65.60
75994;DHT22;64680;53.800;9.988;2024-01-15T08:23:44;1.10;65.70
75994;DHT22;64680;53.800;9.988;2024-01-15T08:26:10;1.20;65.90
75994;DHT22;64680;53.800;9.988;2024-01-15T08:28:36;1.20;65.00
75994;DHT22;64680;53.800;9.988;2024-01-15T08:31:02;1.20;63.00
75994;DHT22;64680;53.800;9.988;2024-01-15T08:33:28;1.30;60.90
75994;DHT22;64680;53.800;9.988;2024-01-15T08:35:54;1.40;61.40
75994;DHT22;64680;53.800;9.988;2024-01-15T08:38:20;1.40;62.70
75994;DHT22;64680;53.800;9.988;2024-01-15T08:40:46;1.40;63.70
75994;DHT22;64680;53.800;9.988;2024-01-15T08:43:12;1.50;60.80
75994;DHT22;64680;53.800;9.988;2024-01-15T08:45:38;1.50;60.20
75994;DHT22;64680;53.800;9.988;2024-01-15T08:48:04;1.40;60.90
75994;DHT22;64680;53.800;9.988;2024-01-15T08:50:32;1.50;59.50
75994;DHT22;64680;53.800;9.988;2024-01-15T08:52:58;1.50;58.50
75994;DHT22;64680;53.800;9.988;2024-01-15T08:55:24;1.60;58.00
75994;DHT22;64680;53.800;9.988;2024-01-15T08:57:50;1.60;58.20
75994;DHT22;64680;53.800;9.988;2024-01-15T09:00:17;1.50;58.00
75994;DHT22;64680;53.800;9.988;2024-01-15T09:02:43;1.60;57.40
75994;DHT22;64680;53.800;9.988;2024-01-15T09:05:09;1.50;59.40
75994;DHT22;64680;53.800;9.988;2024-01-15T09:07:34;1.60;58.40
75994;DHT22;64680;53.800;9.988;2024-01-15T09:10:00;1.60;58.50
75994;DHT22;64680;53.800;9.988;2024-01-15T09:12:26;1.70;58.00
75994;DHT22;64680;53.800;9.988;2024-01-15T09:14:52;1.70;59.50
75994;DHT22;64680;53.800;9.988;2024-01-15T09:17:19;1.70;62.40
75994;DHT22;64680;53.800;9.988;2024-01-15T09:19:45;1.70;63.60
75994;DHT22;64680;53.800;9.988;2024-01-15T09:22:12;1.70;62.80
75994;DHT22;64680;53.800;9.988;2024-01-15T09:24:40;1.70;61.30
75994;DHT22;64680;53.800;9.988;2024-01-15T09:27:06;1.70;62.90
75994;DHT22;64680;53.800;9.988;2024-01-15T09:29:32;1.70;63.60
75994;DHT22;64680;53.800;9.988;2024-01-15T09:31:57;1.60;65.90
75994;DHT22;64680;53.800;9.988;2024-01-15T09:34:24;1.60;68.00
75994;DHT22;64680;53.800;9.988;2024-01-15T09:36:49;1.60;68.30
75994;DHT22;64680;53.800;9.988;2024-01-15T09:39:15;1.60;68.70
75994;DHT22;64680;53.800;9.988;2024-01-15T09:41:41;1.60;68.60
75994;DHT22;64680;53.800;9.988;2024-01-15T09:44:07;1.60;72.00
75994;DHT22;64680;53.800;9.988;2024-01-15T09:46:34;1.60;71.50
75994;DHT22;64680;53.800;9.988;2024-01-15T09:49:00;1.50;72.20
75994;DHT22;64680;53.800;9.988;2024-01-15T09:51:30;1.60;71.80
75994;DHT22;64680;53.800;9.988;2024-01-15T09:53:57;1.50;71.60
75994;DHT22;64680;53.800;9.988;2024-01-15T09:56:24;1.50;73.00
75994;DHT22;64680;53.800;9.988;2024-01-15T09:58:50;1.50;74.80
75994;DHT22;64680;53.800;9.988;2024-01-15T10:01:20;1.50;74.70
75994;DHT22;64680;53.800;9.988;2024-01-15T10:03:46;1.50;74.20
75994;DHT22;64680;53.800;9.988;2024-01-15T10:06:15;1.50;73.00
75994;DHT22;64680;53.800;9.988;2024-01-15T10:08:46;1.50;73.00
75994;DHT22;64680;53.800;9.988;2024-01-15T10:11:12;1.50;69.60
75994;DHT22;64680;53.800;9.988;2024-01-15T10:13:39;1.50;69.00
75994;DHT22;64680;53.800;9.988;2024-01-15T10:16:05;1.60;69.60
75994;DHT22;64680;53.800;9.988;2024-01-15T10:18:30;1.60;69.00
75994;DHT22;64680;53.800;9.988;2024-01-15T10:20:56;1.60;68.50
75994;DHT22;64680;53.800;9.988;2024-01-15T10:23:24;1.70;66.90
75994;DHT22;64680;53.800;9.988;2024-01-15T10:25:49;1.70;56.30
75994;DHT22;64680;53.800;9.988;2024-01-15T10:28:19;1.70;49.10
75994;DHT22;64680;53.800;9.988;2024-01-15T10:30:45;1.70;48.10
75994;DHT22;64680;53.800;9.988;2024-01-15T10:33:10;1.70;37.10
75994;DHT22;64680;53.800;9.988;2024-01-15T10:35:38;1.70;36.60
75994;DHT22;64680;53.800;9.988;2024-01-15T10:38:05;1.60;30.30
75994;DHT22;64680;53.800;9.988;2024-01-15T10:40:31;1.50;19.00
75994;DHT22;64680;53.800;9.988;2024-01-15T10:42:57;1.50;17.10
75994;DHT22;64680;53.800;9.988;2024-01-15T10:45:23;1.50;12.60
75994;DHT22;64680;53.800;9.988;2024-01-15T10:47:49;1.50;11.60
75994;DHT22;64680;53.800;9.988;2024-01-15T10:50:15;1.40;13.00
75994;DHT22;64680;53.800;9.988;2024-01-15T10:52:41;1.30;15.20
75994;DHT22;64680;53.800;9.988;2024-01-15T10:55:10;1.30;14.30
75994;DHT22;64680;53.800;9.988;2024-01-15T10:57:39;1.40;14.80
75994;DHT22;64680;53.800;9.988;2024-01-15T11:00:05;1.50;13.00
75994;DHT22;64680;53.800;9.988;2024-01-15T11:02:33;1.50;11.00
75994;DHT22;64680;53.800;9.988;2024-01-15T11:05:00;1.50;13.40
75994;DHT22;64680;53.800;9.988;2024-01-15T11:07:26;1.50;14.90
75994;DHT22;64680;53.800;9.988;2024-01-15T11:09:52;1.50;13.50
75994;DHT22;64680;53.800;9.988;2024-01-15T11:12:18;1.50;11.90
75994;DHT22;64680;53.800;9.988;2024-01-15T11:14:48;1.50;12.30
75994;DHT22;64680;53.800;9.988;2024-01-15T11:17:15;1.60;11.70
75994;DHT22;64680;53.800;9.988;2024-01-15T11:19:48;1.60;11.80
75994;DHT22;64680;53.800;9.988;2024-01-15T11:25:15;1.70;10.70
75994;DHT22;64680;53.800;9.988;2024-01-15T11:27:49;1.60;12.40
75994;DHT22;64680;53.800;9.988;2024-01-15T11:30:18;1.60;12.00
75994;DHT22;64680;53.800;9.988;2024-01-15T11:32:46;1.60;4.90
75994;DHT22;64680;53.800;9.988;2024-01-15T11:35:13;1.50;7.40
75994;DHT22;64680;53.800;9.988;2024-01-15T11:40:23;1.40;1.00
75994;DHT22;64680;53.800;9.988;2024-01-15T11:43:05;1.40;4.90
75994;DHT22;64680;53.800;9.988;2024-01-15T11:45:31;1.30;5.60
75994;DHT22;64680;53.800;9.988;2024-01-15T11:48:15;1.30;5.20
75994;DHT22;64680;53.800;9.988;2024-01-15T11:50:43;1.20;6.60
75994;DHT22;64680;53.800;9.988;2024-01-15T11:56:15;1.30;5.40
75994;DHT22;64680;53.800;9.988;2024-01-15T11:58:42;1.40;6.60
75994;DHT22;64680;53.800;9.988;2024-01-15T12:01:08;1.40;6.90
75994;DHT22;64680;53.800;9.988;2024-01-15T12:03:34;1.30;8.80
75994;DHT22;64680;53.800;9.988;2024-01-15T12:06:00;1.20;7.60
75994;DHT22;64680;53.800;9.988;2024-01-15T12:08:26;1.20;10.40
75994;DHT22;64680;53.800;9.988;2024-01-15T12:10:53;1.20;9.60
75994;DHT22;64680;53.800;9.988;2024-01-15T12:13:20;1.10;10.20
75994;DHT22;64680;53.800;9.988;2024-01-15T12:15:49;1.00;12.90
75994;DHT22;64680;53.800;9.988;2024-01-15T12:18:16;0.90;14.20
75994;DHT22;64680;53.800;9.988;2024-01-15T12:20:43;0.80;15.60
75994;DHT22;64680;53.800;9.988;2024-01-15T12:23:09;0.70;14.80
75994;DHT22;64680;53.800;9.988;2024-01-15T12:25:36;0.70;15.00
75994;DHT22;64680;53.800;9.988;2024-01-15T12:28:01;0.60;15.50
75994;DHT22;64680;53.800;9.988;2024-01-15T12:30:28;0.70;13.80
75994;DHT22;64680;53.800;9.988;2024-01-15T12:32:54;0.60;11.60
75994;DHT22;64680;53.800;9.988;2024-01-15T12:35:20;0.60;12.30
75994;DHT22;64680;53.800;9.988;2024-01-15T12:37:45;0.60;12.60
75994;DHT22;64680;53.800;9.988;2024-01-15T12:40:12;0.60;9.40
75994;DHT22;64680;53.800;9.988;2024-01-15T12:42:40;0.60;8.30
75994;DHT22;64680;53.800;9.988;2024-01-15T12:45:07;0.60;6.80
75994;DHT22;64680;53.800;9.988;2024-01-15T12:47:33;0.70;8.50
75994;DHT22;64680;53.800;9.988;2024-01-15T12:49:59;0.70;5.90
75994;DHT22;64680;53.800;9.988;2024-01-15T12:52:27;0.70;6.70
75994;DHT22;64680;53.800;9.988;2024-01-15T12:54:53;0.70;7.70
75994;DHT22;64680;53.800;9.988;2024-01-15T12:57:18;0.70;6.60
75994;DHT22;64680;53.800;9.988;2024-01-15T12:59:44;0.70;6.80
75994;DHT22;64680;53.800;9.988;2024-01-15T13:02:14;0.70;9.40
75994;DHT22;64680;53.800;9.988;2024-01-15T13:04:39;0.70;8.30
75994;DHT22;64680;53.800;9.988;2024-01-15T13:07:06;0.70;10.90
75994;DHT22;64680;53.800;9.988;2024-01-15T13:09:32;0.70;9.10
75994;DHT22;64680;53.800;9.988;2024-01-15T13:11:58;0.70;9.40
75994;DHT22;64680;53.800;9.988;2024-01-15T13:14:24;0.70;11.20
75994;DHT22;64680;53.800;9.988;2024-01-15T13:16:50;0.70;10.90
75994;DHT22;64680;53.800;9.988;2024-01-15T13:19:15;0.60;10.20
75994;DHT22;64680;53.800;9.988;2024-01-15T13:21:41;0.60;12.90
75994;DHT22;64680;53.800;9.988;2024-01-15T13:24:07;0.70;9.30
75994;DHT22;64680;53.800;9.988;2024-01-15T13:26:33;0.80;9.50
75994;DHT22;64680;53.800;9.988;2024-01-15T13:29:03;0.70;11.40
75994;DHT22;64680;53.800;9.988;2024-01-15T13:31:34;0.80;13.10
75994;DHT22;64680;53.800;9.988;2024-01-15T13:34:00;0.90;10.40
75994;DHT22;64680;53.800;9.988;2024-01-15T13:36:29;0.80;12.50
75994;DHT22;64680;53.800;9.988;2024-01-15T13:38:54;0.80;16.40
75994;DHT22;64680;53.800;9.988;2024-01-15T13:41:21;0.70;15.10
75994;DHT22;64680;53.800;9.988;2024-01-15T13:43:54;0.80;17.90
75994;DHT22;64680;53.800;9.988;2024-01-15T13:46:24;0.80;15.70
75994;DHT22;64680;53.800;9.988;2024-01-15T13:48:50;0.70;17.60
75994;DHT22;64680;53.800;9.988;2024-01-15T13:51:15;0.80;16.50
75994;DHT22;64680;53.800;9.988;2024-01-15T13:53:41;0.90;15.40
75994;DHT22;64680;53.800;9.988;2024-01-15T13:56:07;0.70;15.50
75994;DHT22;64680;53.800;9.988;2024-01-15T13:58:33;0.70;17.90
75994;DHT22;64680;53.800;9.988;2024-01-15T14:01:00;0.70;16.70
75994;DHT22;64680;53.800;9.988;2024-01-15T14:03:25;0.60;18.10
75994;DHT22;64680;53.800;9.988;2024-01-15T14:05:51;0.60;19.10
75994;DHT22;64680;53.800;9.988;2024-01-15T14:08:17;0.50;21.50
75994;DHT22;64680;53.800;9.988;2024-01-15T14:10:43;0.50;19.00
75994;DHT22;64680;53.800;9.988;2024-01-15T14:13:08;0.40;18.70
75994;DHT22;64680;53.800;9.988;2024-01-15T14:15:34;0.30;20.00
75994;DHT22;64680;53.800;9.988;2024-01-15T14:18:00;0.40;18.40
75994;DHT22;64680;53.800;9.988;2024-01-15T14:20:26;0.30;19.20
75994;DHT22;64680;53.800;9.988;2024-01-15T14:22:53;0.20;20.40
75994;DHT22;64680;53.800;9.988;2024-01-15T14:25:19;0.10;22.00
75994;DHT22;64680;53.800;9.988;2024-01-15T14:27:45;0.00;20.40
75994;DHT22;64680;53.800;9.988;2024-01-15T14:30:11;0.00;21.90
75994;DHT22;64680;53.800;9.988;2024-01-15T14:32:38;-0.10;23.70
75994;DHT22;64680;53.800;9.988;2024-01-15T14:35:07;-0.10;25.10
75994;DHT22;64680;53.800;9.988;2024-01-15T14:37:38;-0.20;26.40
75994;DHT22;64680;53.800;9.988;2024-01-15T14:40:07;-0.20;25.20
75994;DHT22;64680;53.800;9.988;2024-01-15T14:42:34;-0.20;25.50
75994;DHT22;64680;53.800;9.988;2024-01-15T14:45:00;-0.30;26.40
75994;DHT22;64680;53.800;9.988;2024-01-15T14:47:26;-0.30;28.00
75994;DHT22;64680;53.800;9.988;2024-01-15T14:49:53;-0.30;29.70
75994;DHT22;64680;53.800;9.988;2024-01-15T14:52:18;-0.40;29.50
75994;DHT22;64680;53.800;9.988;2024-01-15T14:54:45;-0.50;31.30
75994;DHT22;64680;53.800;9.988;2024-01-15T14:57:10;-0.60;33.20
75994;DHT22;64680;53.800;9.988;2024-01-15T14:59:36;-0.60;34.00
75994;DHT22;64680;53.800;9.988;2024-01-15T15:02:01;-0.60;33.00
75994;DHT22;64680;53.800;9.988;2024-01-15T15:04:27;-0.60;31.70
75994;DHT22;64680;53.800;9.988;2024-01-15T15:06:53;-0.60;29.90
75994;DHT22;64680;53.800;9.988;2024-01-15T15:09:19;-0.60;30.60
75994;DHT22;64680;53.800;9.988;2024-01-15T15:11:45;-0.70;30.70
75994;DHT22;64680;53.800;9.988;2024-01-15T15:14:10;-0.70;31.40
75994;DHT22;64680;53.800;9.988;2024-01-15T15:16:36;-0.80;32.60
75994;DHT22;64680;53.800;9.988;2024-01-15T15:19:01;-0.90;35.50
75994;DHT22;64680;53.800;9.988;2024-01-15T15:21:27;-0.90;36.80
75994;DHT22;64680;53.800;9.988;2024-01-15T15:23:54;-1.00;38.60
75994;DHT22;64680;53.800;9.988;2024-01-15T15:26:22;-1.10;40.00
75994;DHT22;64680;53.800;9.988;2024-01-15T15:28:48;-1.10;40.40
75994;DHT22;64680;53.800;9.988;2024-01-15T15:31:14;-1.20;41.80
75994;DHT22;64680;53.800;9.988;2024-01-15T15:33:40;-1.20;40.50
75994;DHT22;64680;53.800;9.988;2024-01-15T15:36:05;-1.30;41.50
75994;DHT22;64680;53.800;9.988;2024-01-15T15:38:32;-1.40;41.50
75994;DHT22;64680;53.800;9.988;2024-01-15T15:40:58;-1.40;42.40
75994;DHT22;64680;53.800;9.988;2024-01-15T15:43:25;-1.40;45.00
75994;DHT22;64680;53.800;9.988;2024-01-15T15:45:51;-1.40;46.40
75994;DHT22;64680;53.800;9.988;2024-01-15T15:48:16;-1.40;47.10